sensor_id;sensor_type;location;lat;lon;timestamp;P1;durP1;ratioP1;P2;durP2;ratioP2
35128;SDS011;21301;43.626;10.580;2024-03-02T00:00:31;13.18;;;5.50;;
35128;SDS011;21301;43.626;10.580;2024-03-02T00:02:57;7.38;;;3.45;;
35128;SDS011;21301;43.626;10.580;2024-03-02T00:05:22;8.13;;;1.63;;
35128;SDS011;21301;43.626;10.580;2024-03-02T00:07:55;6.22;;;1.70;;
35128;SDS011;21301;43.626;10.580;2024-03-02T00:10:22;4.28;;;1.83;;
35128;SDS011;21301;43.626;10.580;2024-03-02T00:12:53;7.85;;;2.92;;
35128;SDS011;21301;43.626;10.580;2024-03-02T00:18:09;5.07;;;2.72;;
35128;SDS011;21301;43.626;10.580;2024-03-02T00:20:38;6.15;;;3.08;;
35128;SDS011;21301;43.626;10.580;2024-03-02T00:23:07;7.72;;;3.03;;
35128;SDS011;21301;43.626;10.580;2024-03-02T00:25:44;5.07;;;2.20;;
35128;SDS011;21301;43.626;10.580;2024-03-02T00:28:27;6.22;;;1.88;;
35128;SDS011;21301;43.626;10.580;2024-03-02T00:31:05;5.80;;;2.17;;
35128;SDS011;21301;43.626;10.580;2024-03-02T00:33:39;6.63;;;2.13;;
35128;SDS011;21301;43.626;10.580;2024-03-02T00:36:07;5.90;;;1.92;;
35128;SDS011;21301;43.626;10.580;2024-03-02T00:38:34;3.72;;;1.60;;
35128;SDS011;21301;43.626;10.580;2024-03-02T00:41:04;3.70;;;1.40;;
35128;SDS011;21301;43.626;10.580;2024-03-02T00:43:43;4.82;;;1.63;;
35128;SDS011;21301;43.626;10.580;2024-03-02T00:46:12;4.57;;;1.15;;
35128;SDS011;21301;43.626;10.580;2024-03-02T00:48:48;6.45;;;1.45;;
35128;SDS011;21301;43.626;10.580;2024-03-02T00:51:16;5.47;;;1.00;;
35128;SDS011;21301;43.626;10.580;2024-03-02T00:53:42;3.63;;;1.23;;
35128;SDS011;21301;43.626;10.580;2024-03-02T00:56:09;3.22;;;0.98;;
35128;SDS011;21301;43.626;10.580;2024-03-02T00:58:37;4.28;;;1.50;;
35128;SDS011;21301;43.626;10.580;2024-03-02T01:01:03;2.53;;;0.90;;
35128;SDS011;21301;43.626;10.580;2024-03-02T01:03:29;2.67;;;1.05;;
35128;SDS011;21301;43.626;10.580;2024-03-02T01:05:56;2.63;;;0.80;;
35128;SDS011;21301;43.626;10.580;2024-03-02T01:08:23;5.07;;;1.80;;
35128;SDS011;21301;43.626;10.580;2024-03-02T01:10:49;4.72;;;1.13;;
35128;SDS011;21301;43.626;10.580;2024-03-02T01:13:15;4.28;;;1.88;;
35128;SDS011;21301;43.626;10.580;2024-03-02T01:15:40;3.60;;;1.58;;
35128;SDS011;21301;43.626;10.580;2024-03-02T01:18:06;3.60;;;1.40;;
35128;SDS011;21301;43.626;10.580;2024-03-02T01:20:31;7.95;;;2.05;;
35128;SDS011;21301;43.626;10.580;2024-03-02T01:22:57;6.50;;;3.10;;
35128;SDS011;21301;43.626;10.580;2024-03-02T01:25:23;16.83;;;2.50;;
35128;SDS011;21301;43.626;10.580;2024-03-02T01:27:48;5.93;;;2.30;;
35128;SDS011;21301;43.626;10.580;2024-03-02T01:30:14;5.53;;;2.38;;
35128;SDS011;21301;43.626;10.580;2024-03-02T01:32:39;4.88;;;2.15;;
35128;SDS011;21301;43.626;10.580;2024-03-02T01:35:06;6.60;;;2.85;;
35128;SDS011;21301;43.626;10.580;2024-03-02T01:37:32;4.20;;;2.22;;
35128;SDS011;21301;43.626;10.580;2024-03-02T01:39:58;10.90;;;2.63;;
35128;SDS011;21301;43.626;10.580;2024-03-02T01:42:26;4.57;;;2.28;;
35128;SDS011;21301;43.626;10.580;2024-03-02T01:44:53;4.55;;;2.45;;
35128;SDS011;21301;43.626;10.580;2024-03-02T01:47:18;4.78;;;2.67;;
35128;SDS011;21301;43.626;10.580;2024-03-02T01:49:44;6.43;;;2.45;;
35128;SDS011;21301;43.626;10.580;2024-03-02T01:52:09;5.95;;;2.60;;
35128;SDS011;21301;43.626;10.580;2024-03-02T01:54:37;4.68;;;2.22;;
35128;SDS011;21301;43.626;10.580;2024-03-02T01:57:04;6.97;;;2.75;;
35128;SDS011;21301;43.626;10.580;2024-03-02T01:59:29;5.40;;;2.17;;
35128;SDS011;21301;43.626;10.580;2024-03-02T02:01:55;4.88;;;2.30;;
35128;SDS011;21301;43.626;10.580;2024-03-02T02:04:20;5.20;;;2.45;;
35128;SDS011;21301;43.626;10.580;2024-03-02T02:06:52;7.20;;;2.60;;
35128;SDS011;21301;43.626;10.580;2024-03-02T02:09:17;5.35;;;2.90;;
35128;SDS011;21301;43.626;10.580;2024-03-02T02:11:45;7.95;;;3.10;;
35128;SDS011;21301;43.626;10.580;2024-03-02T02:14:10;6.60;;;3.17;;
35128;SDS011;21301;43.626;10.580;2024-03-02T02:16:37;5.05;;;2.95;;
35128;SDS011;21301;43.626;10.580;2024-03-02T02:19:03;7.70;;;2.55;;
35128;SDS011;21301;43.626;10.580;2024-03-02T02:21:29;9.07;;;2.45;;
35128;SDS011;21301;43.626;10.580;2024-03-02T02:23:57;5.10;;;2.58;;
35128;SDS011;21301;43.626;10.580;2024-03-02T02:26:22;5.63;;;2.65;;
35128;SDS011;21301;43.626;10.580;2024-03-02T02:28:50;5.07;;;2.10;;
35128;SDS011;21301;43.626;10.580;2024-03-02T02:31:15;5.47;;;2.67;;
35128;SDS011;21301;43.626;10.580;2024-03-02T02:33:41;5.68;;;2.38;;
35128;SDS011;21301;43.626;10.580;2024-03-02T02:36:08;4.82;;;2.03;;
35128;SDS011;21301;43.626;10.580;2024-03-02T02:38:41;7.47;;;2.55;;
35128;SDS011;21301;43.626;10.580;2024-03-02T02:41:11;5.13;;;2.50;;
35128;SDS011;21301;43.626;10.580;2024-03-02T02:43:36;5.45;;;2.13;;
35128;SDS011;21301;43.626;10.580;2024-03-02T02:46:02;7.60;;;2.08;;
35128;SDS011;21301;43.626;10.580;2024-03-02T02:48:27;4.70;;;2.00;;
35128;SDS011;21301;43.626;10.580;2024-03-02T02:50:53;5.80;;;2.28;;
35128;SDS011;21301;43.626;10.580;2024-03-02T02:53:18;4.60;;;2.38;;
35128;SDS011;21301;43.626;10.580;2024-03-02T02:55:44;7.72;;;2.30;;
35128;SDS011;21301;43.626;10.580;2024-03-02T02:58:10;6.05;;;2.15;;
35128;SDS011;21301;43.626;10.580;2024-03-02T03:00:35;4.78;;;1.80;;
35128;SDS011;21301;43.626;10.580;2024-03-02T03:03:01;4.22;;;1.98;;
35128;SDS011;21301;43.626;10.580;2024-03-02T03:05:27;5.05;;;2.20;;
35128;SDS011;21301;43.626;10.580;2024-03-02T03:07:53;4.63;;;2.00;;
35128;SDS011;21301;43.626;10.580;2024-03-02T03:10:19;6.25;;;2.50;;
35128;SDS011;21301;43.626;10.580;2024-03-02T03:12:47;7.07;;;2.08;;
35128;SDS011;21301;43.626;10.580;2024-03-02T03:15:13;6.97;;;2.33;;
35128;SDS011;21301;43.626;10.580;2024-03-02T03:17:39;4.35;;;2.17;;
35128;SDS011;21301;43.626;10.580;2024-03-02T03:20:05;4.68;;;1.95;;
35128;SDS011;21301;43.626;10.580;2024-03-02T03:22:35;5.03;;;2.15;;
35128;SDS011;21301;43.626;10.580;2024-03-02T03:25:01;6.15;;;2.40;;
35128;SDS011;21301;43.626;10.580;2024-03-02T03:27:26;5.93;;;2.13;;
35128;SDS011;21301;43.626;10.580;2024-03-02T03:29:53;4.82;;;2.15;;
35128;SDS011;21301;43.626;10.580;2024-03-02T03:32:19;4.18;;;2.00;;
35128;SDS011;21301;43.626;10.580;2024-03-02T03:34:45;5.40;;;1.98;;
35128;SDS011;21301;43.626;10.580;2024-03-02T03:37:10;8.25;;;2.28;;
35128;SDS011;21301;43.626;10.580;2024-03-02T03:39:37;5.40;;;2.38;;
35128;SDS011;21301;43.626;10.580;2024-03-02T03:42:03;5.20;;;2.00;;
35128;SDS011;21301;43.626;10.580;2024-03-02T03:44:29;4.80;;;2.42;;
35128;SDS011;21301;43.626;10.580;2024-03-02T03:46:55;6.60;;;2.20;;
35128;SDS011;21301;43.626;10.580;2024-03-02T03:49:20;5.30;;;2.10;;
35128;SDS011;21301;43.626;10.580;2024-03-02T03:51:46;6.82;;;2.83;;
35128;SDS011;21301;43.626;10.580;2024-03-02T03:54:11;5.18;;;2.28;;
35128;SDS011;21301;43.626;10.580;2024-03-02T03:56:37;6.03;;;2.28;;
35128;SDS011;21301;43.626;10.580;2024-03-02T03:59:04;5.85;;;2.35;;
35128;SDS011;21301;43.626;10.580;2024-03-02T04:01:30;5.57;;;2.30;;
35128;SDS011;21301;43.626;10.580;2024-03-02T04:03:56;3.65;;;1.75;;
35128;SDS011;21301;43.626;10.580;2024-03-02T04:06:23;7.82;;;2.50;;
35128;SDS011;21301;43.626;10.580;2024-03-02T04:08:49;5.00;;;2.30;;
35128;SDS011;21301;43.626;10.580;2024-03-02T04:11:16;6.63;;;3.03;;
35128;SDS011;21301;43.626;10.580;2024-03-02T04:13:41;5.93;;;2.63;;
35128;SDS011;21301;43.626;10.580;2024-03-02T04:16:07;5.97;;;2.55;;
35128;SDS011;21301;43.626;10.580;2024-03-02T04:18:32;9.98;;;2.35;;
35128;SDS011;21301;43.626;10.580;2024-03-02T04:20:58;7.32;;;2.80;;
35128;SDS011;21301;43.626;10.580;2024-03-02T04:23:27;8.73;;;2.75;;
35128;SDS011;21301;43.626;10.580;2024-03-02T04:25:52;5.63;;;3.00;;
35128;SDS011;21301;43.626;10.580;2024-03-02T04:28:18;5.70;;;2.60;;
35128;SDS011;21301;43.626;10.580;2024-03-02T04:30:44;4.28;;;2.33;;
35128;SDS011;21301;43.626;10.580;2024-03-02T04:33:09;5.88;;;2.63;;
35128;SDS011;21301;43.626;10.580;2024-03-02T04:35:35;5.18;;;2.47;;
35128;SDS011;21301;43.626;10.580;2024-03-02T04:38:02;6.82;;;2.30;;
35128;SDS011;21301;43.626;10.580;2024-03-02T04:40:27;7.47;;;2.55;;
35128;SDS011;21301;43.626;10.580;2024-03-02T04:42:53;6.38;;;2.60;;
35128;SDS011;21301;43.626;10.580;2024-03-02T04:45:20;8.57;;;2.50;;
35128;SDS011;21301;43.626;10.580;2024-03-02T04:47:45;5.45;;;2.55;;
35128;SDS011;21301;43.626;10.580;2024-03-02T04:50:11;5.30;;;2.17;;
35128;SDS011;21301;43.626;10.580;2024-03-02T04:52:37;5.32;;;2.85;;
35128;SDS011;21301;43.626;10.580;2024-03-02T04:55:02;5.43;;;2.70;;
35128;SDS011;21301;43.626;10.580;2024-03-02T04:57:35;4.18;;;2.33;;
35128;SDS011;21301;43.626;10.580;2024-03-02T05:00:00;5.90;;;3.50;;
35128;SDS011;21301;43.626;10.580;2024-03-02T05:02:26;6.53;;;4.57;;
35128;SDS011;21301;43.626;10.580;2024-03-02T05:04:52;5.85;;;3.38;;
35128;SDS011;21301;43.626;10.580;2024-03-02T05:07:17;7.03;;;2.78;;
35128;SDS011;21301;43.626;10.580;2024-03-02T05:09:43;7.15;;;3.67;;
35128;SDS011;21301;43.626;10.580;2024-03-02T05:12:09;7.55;;;3.22;;
35128;SDS011;21301;43.626;10.580;2024-03-02T05:14:45;6.82;;;3.03;;
35128;SDS011;21301;43.626;10.580;2024-03-02T05:17:11;6.82;;;3.22;;
35128;SDS011;21301;43.626;10.580;2024-03-02T05:19:36;6.00;;;3.70;;
35128;SDS011;21301;43.626;10.580;2024-03-02T05:22:04;8.18;;;3.80;;
35128;SDS011;21301;43.626;10.580;2024-03-02T05:24:29;5.72;;;3.40;;
35128;SDS011;21301;43.626;10.580;2024-03-02T05:26:55;5.28;;;3.08;;
35128;SDS011;21301;43.626;10.580;2024-03-02T05:29:20;6.75;;;3.97;;
35128;SDS011;21301;43.626;10.580;2024-03-02T05:31:46;6.03;;;3.58;;
35128;SDS011;21301;43.626;10.580;2024-03-02T05:34:12;5.10;;;3.10;;
35128;SDS011;21301;43.626;10.580;2024-03-02T05:36:37;6.05;;;3.45;;
35128;SDS011;21301;43.626;10.580;2024-03-02T05:39:04;7.05;;;3.35;;
35128;SDS011;21301;43.626;10.580;2024-03-02T05:41:34;6.18;;;3.10;;
35128;SDS011;21301;43.626;10.580;2024-03-02T05:44:00;6.18;;;3.47;;
35128;SDS011;21301;43.626;10.580;2024-03-02T05:46:26;6.82;;;3.20;;
35128;SDS011;21301;43.626;10.580;2024-03-02T05:48:52;6.53;;;3.40;;
35128;SDS011;21301;43.626;10.580;2024-03-02T05:51:18;5.93;;;3.22;;
35128;SDS011;21301;43.626;10.580;2024-03-02T05:53:44;7.70;;;3.47;;
35128;SDS011;21301;43.626;10.580;2024-03-02T05:56:09;8.43;;;3.50;;
35128;SDS011;21301;43.626;10.580;2024-03-02T05:58:37;5.38;;;2.88;;
35128;SDS011;21301;43.626;10.580;2024-03-02T06:01:21;5.45;;;3.38;;
35128;SDS011;21301;43.626;10.580;2024-03-02T06:03:53;4.75;;;2.08;;
35128;SDS011;21301;43.626;10.580;2024-03-02T06:06:24;4.63;;;2.60;;
35128;SDS011;21301;43.626;10.580;2024-03-02T06:08:50;3.95;;;1.60;;
35128;SDS011;21301;43.626;10.580;2024-03-02T06:11:17;5.75;;;1.83;;
35128;SDS011;21301;43.626;10.580;2024-03-02T06:13:44;6.72;;;2.75;;
35128;SDS011;21301;43.626;10.580;2024-03-02T06:16:09;5.97;;;2.83;;
35128;SDS011;21301;43.626;10.580;2024-03-02T06:18:35;7.07;;;2.25;;
35128;SDS011;21301;43.626;10.580;2024-03-02T06:21:01;7.03;;;1.10;;
35128;SDS011;21301;43.626;10.580;2024-03-02T06:23:28;7.18;;;1.35;;
35128;SDS011;21301;43.626;10.580;2024-03-02T06:25:54;4.70;;;1.45;;
35128;SDS011;21301;43.626;10.580;2024-03-02T06:28:20;3.63;;;1.05;;
35128;SDS011;21301;43.626;10.580;2024-03-02T06:30:45;2.90;;;0.98;;
35128;SDS011;21301;43.626;10.580;2024-03-02T06:33:11;4.68;;;0.90;;
35128;SDS011;21301;43.626;10.580;2024-03-02T06:35:37;7.72;;;1.30;;
35128;SDS011;21301;43.626;10.580;2024-03-02T06:38:03;5.55;;;1.35;;
35128;SDS011;21301;43.626;10.580;2024-03-02T06:40:29;6.28;;;1.38;;
35128;SDS011;21301;43.626;10.580;2024-03-02T06:42:54;5.35;;;1.17;;
35128;SDS011;21301;43.626;10.580;2024-03-02T06:45:20;5.72;;;1.77;;
35128;SDS011;21301;43.626;10.580;2024-03-02T06:47:45;5.10;;;1.38;;
35128;SDS011;21301;43.626;10.580;2024-03-02T06:50:11;6.00;;;1.75;;
35128;SDS011;21301;43.626;10.580;2024-03-02T06:52:37;7.80;;;2.08;;
35128;SDS011;21301;43.626;10.580;2024-03-02T06:55:02;4.38;;;1.27;;
35128;SDS011;21301;43.626;10.580;2024-03-02T06:57:30;5.68;;;1.98;;
35128;SDS011;21301;43.626;10.580;2024-03-02T06:59:55;5.05;;;2.00;;
35128;SDS011;21301;43.626;10.580;2024-03-02T07:02:26;4.53;;;1.17;;
35128;SDS011;21301;43.626;10.580;2024-03-02T07:04:52;5.55;;;1.20;;
35128;SDS011;21301;43.626;10.580;2024-03-02T07:07:19;4.38;;;1.30;;
35128;SDS011;21301;43.626;10.580;2024-03-02T07:09:45;5.20;;;1.52;;
35128;SDS011;21301;43.626;10.580;2024-03-02T07:12:11;6.28;;;1.92;;
35128;SDS011;21301;43.626;10.580;2024-03-02T07:14:36;5.88;;;1.50;;
35128;SDS011;21301;43.626;10.580;2024-03-02T07:17:20;2.90;;;1.00;;
35128;SDS011;21301;43.626;10.580;2024-03-02T07:19:46;3.95;;;1.35;;
35128;SDS011;21301;43.626;10.580;2024-03-02T07:22:11;7.07;;;3.08;;
35128;SDS011;21301;43.626;10.580;2024-03-02T07:24:43;9.77;;;5.60;;
35128;SDS011;21301;43.626;10.580;2024-03-02T07:27:09;12.70;;;5.97;;
35128;SDS011;21301;43.626;10.580;2024-03-02T07:29:35;5.47;;;1.85;;
35128;SDS011;21301;43.626;10.580;2024-03-02T07:32:01;4.90;;;1.60;;
35128;SDS011;21301;43.626;10.580;2024-03-02T07:34:27;7.97;;;2.35;;
35128;SDS011;21301;43.626;10.580;2024-03-02T07:36:52;6.13;;;2.08;;
35128;SDS011;21301;43.626;10.580;2024-03-02T07:39:18;5.10;;;1.10;;
35128;SDS011;21301;43.626;10.580;2024-03-02T07:41:45;4.55;;;1.35;;
35128;SDS011;21301;43.626;10.580;2024-03-02T07:44:11;4.05;;;1.48;;
35128;SDS011;21301;43.626;10.580;2024-03-02T07:46:42;4.07;;;2.05;;
35128;SDS011;21301;43.626;10.580;2024-03-02T07:49:09;3.13;;;1.00;;
35128;SDS011;21301;43.626;10.580;2024-03-02T07:51:35;3.40;;;1.35;;
35128;SDS011;21301;43.626;10.580;2024-03-02T07:54:05;5.53;;;1.48;;
35128;SDS011;21301;43.626;10.580;2024-03-02T07:56:31;8.77;;;1.60;;
35128;SDS011;21301;43.626;10.580;2024-03-02T07:58:56;4.57;;;1.13;;
35128;SDS011;21301;43.626;10.580;2024-03-02T08:01:26;4.10;;;1.10;;
35128;SDS011;21301;43.626;10.580;2024-03-02T08:03:58;5.05;;;1.45;;
35128;SDS011;21301;43.626;10.580;2024-03-02T08:06:29;5.10;;;1.48;;
35128;SDS011;21301;43.626;10.580;2024-03-02T08:08:56;8.95;;;1.48;;
35128;SDS011;21301;43.626;10.580;2024-03-02T08:11:22;5.60;;;2.00;;
35128;SDS011;21301;43.626;10.580;2024-03-02T08:13:49;4.25;;;1.63;;
35128;SDS011;21301;43.626;10.580;2024-03-02T08:16:15;4.18;;;1.00;;
35128;SDS011;21301;43.626;10.580;2024-03-02T08:18:41;7.40;;;1.50;;
35128;SDS011;21301;43.626;10.580;2024-03-02T08:21:08;3.35;;;1.20;;
35128;SDS011;21301;43.626;10.580;2024-03-02T08:23:34;3.30;;;1.17;;
35128;SDS011;21301;43.626;10.580;2024-03-02T08:26:00;3.90;;;1.20;;
35128;SDS011;21301;43.626;10.580;2024-03-02T08:28:26;5.35;;;1.80;;
35128;SDS011;21301;43.626;10.580;2024-03-02T08:30:52;4.97;;;1.95;;
35128;SDS011;21301;43.626;10.580;2024-03-02T08:33:17;5.35;;;1.65;;
35128;SDS011;21301;43.626;10.580;2024-03-02T08:35:44;6.72;;;2.30;;
35128;SDS011;21301;43.626;10.580;2024-03-02T08:38:12;6.05;;;1.25;;
35128;SDS011;21301;43.626;10.580;2024-03-02T08:40:37;7.38;;;1.83;;
35128;SDS011;21301;43.626;10.580;2024-03-02T08:43:03;14.05;;;1.60;;
35128;SDS011;21301;43.626;10.580;2024-03-02T08:45:28;7.25;;;1.52;;
35128;SDS011;21301;43.626;10.580;2024-03-02T08:47:54;8.40;;;2.10;;
35128;SDS011;21301;43.626;10.580;2024-03-02T08:50:20;12.35;;;2.20;;
35128;SDS011;21301;43.626;10.580;2024-03-02T08:52:46;10.10;;;2.40;;
35128;SDS011;21301;43.626;10.580;2024-03-02T08:55:12;10.02;;;2.25;;
35128;SDS011;21301;43.626;10.580;2024-03-02T08:57:37;8.90;;;2.35;;
35128;SDS011;21301;43.626;10.580;2024-03-02T09:00:03;4.88;;;1.30;;
35128;SDS011;21301;43.626;10.580;2024-03-02T09:02:30;9.23;;;1.98;;
35128;SDS011;21301;43.626;10.580;2024-03-02T09:04:56;8.98;;;2.38;;
35128;SDS011;21301;43.626;10.580;2024-03-02T09:07:22;5.30;;;1.52;;
35128;SDS011;21301;43.626;10.580;2024-03-02T09:09:48;8.15;;;1.80;;
35128;SDS011;21301;43.626;10.580;2024-03-02T09:12:18;18.33;;;3.10;;
35128;SDS011;21301;43.626;10.580;2024-03-02T09:14:44;7.70;;;2.33;;
35128;SDS011;21301;43.626;10.580;2024-03-02T09:17:13;12.05;;;2.20;;
35128;SDS011;21301;43.626;10.580;2024-03-02T09:19:39;13.55;;;3.75;;
35128;SDS011;21301;43.626;10.580;2024-03-02T09:22:05;6.63;;;2.05;;
35128;SDS011;21301;43.626;10.580;2024-03-02T09:24:31;8.48;;;1.85;;
35128;SDS011;21301;43.626;10.580;2024-03-02T09:26:58;7.15;;;1.92;;
35128;SDS011;21301;43.626;10.580;2024-03-02T09:29:24;7.82;;;2.25;;
35128;SDS011;21301;43.626;10.580;2024-03-02T09:31:49;8.88;;;1.85;;
35128;SDS011;21301;43.626;10.580;2024-03-02T09:34:16;12.93;;;2.55;;
35128;SDS011;21301;43.626;10.580;2024-03-02T09:36:43;10.43;;;2.25;;
35128;SDS011;21301;43.626;10.580;2024-03-02T09:39:11;7.88;;;2.28;;
35128;SDS011;21301;43.626;10.580;2024-03-02T09:41:38;8.82;;;2.58;;
35128;SDS011;21301;43.626;10.580;2024-03-02T09:44:04;7.78;;;2.17;;
35128;SDS011;21301;43.626;10.580;2024-03-02T09:46:31;11.75;;;2.85;;
35128;SDS011;21301;43.626;10.580;2024-03-02T09:48:57;11.32;;;2.30;;
35128;SDS011;21301;43.626;10.580;2024-03-02T09:51:24;7.30;;;1.63;;
35128;SDS011;21301;43.626;10.580;2024-03-02T09:53:51;9.55;;;2.13;;
35128;SDS011;21301;43.626;10.580;2024-03-02T09:56:19;16.45;;;2.28;;
35128;SDS011;21301;43.626;10.580;2024-03-02T09:58:45;10.68;;;2.28;;
35128;SDS011;21301;43.626;10.580;2024-03-02T10:01:11;7.82;;;2.17;;
35128;SDS011;21301;43.626;10.580;2024-03-02T10:03:38;10.13;;;1.73;;
35128;SDS011;21301;43.626;10.580;2024-03-02T10:08:46;5.53;;;1.58;;
35128;SDS011;21301;43.626;10.580;2024-03-02T10:11:32;10.55;;;2.58;;
35128;SDS011;21301;43.626;10.580;2024-03-02T10:16:42;7.35;;;2.60;;
35128;SDS011;21301;43.626;10.580;2024-03-02T10:19:21;10.45;;;2.30;;
35128;SDS011;21301;43.626;10.580;2024-03-02T10:24:15;11.13;;;2.17;;
35128;SDS011;21301;43.626;10.580;2024-03-02T10:26:41;11.63;;;2.15;;
35128;SDS011;21301;43.626;10.580;2024-03-02T10:29:08;8.27;;;1.88;;
35128;SDS011;21301;43.626;10.580;2024-03-02T10:31:40;9.25;;;1.90;;
35128;SDS011;21301;43.626;10.580;2024-03-02T10:34:09;5.15;;;1.63;;
35128;SDS011;21301;43.626;10.580;2024-03-02T10:36:35;14.82;;;2.63;;
35128;SDS011;21301;43.626;10.580;2024-03-02T10:39:03;9.02;;;2.40;;
35128;SDS011;21301;43.626;10.580;2024-03-02T10:41:31;12.25;;;2.90;;
35128;SDS011;21301;43.626;10.580;2024-03-02T10:43:59;12.60;;;3.00;;
35128;SDS011;21301;43.626;10.580;2024-03-02T10:46:28;10.90;;;2.67;;
35128;SDS011;21301;43.626;10.580;2024-03-02T10:48:56;10.98;;;2.30;;
35128;SDS011;21301;43.626;10.580;2024-03-02T10:51:28;12.85;;;3.20;;
35128;SDS011;21301;43.626;10.580;2024-03-02T10:54:00;6.20;;;2.05;;
35128;SDS011;21301;43.626;10.580;2024-03-02T10:56:28;9.27;;;1.70;;
35128;SDS011;21301;43.626;10.580;2024-03-02T11:01:46;5.82;;;1.50;;
35128;SDS011;21301;43.626;10.580;2024-03-02T11:04:20;6.97;;;1.25;;
35128;SDS011;21301;43.626;10.580;2024-03-02T11:06:52;6.00;;;1.65;;
35128;SDS011;21301;43.626;10.580;2024-03-02T11:09:34;5.95;;;1.65;;
35128;SDS011;21301;43.626;10.580;2024-03-02T11:12:03;6.03;;;2.03;;
35128;SDS011;21301;43.626;10.580;2024-03-02T11:14:30;9.45;;;1.60;;
35128;SDS011;21301;43.626;10.580;2024-03-02T11:17:00;12.60;;;2.20;;
35128;SDS011;21301;43.626;10.580;2024-03-02T11:19:28;6.63;;;2.63;;
35128;SDS011;21301;43.626;10.580;2024-03-02T11:21:59;7.82;;;1.70;;
35128;SDS011;21301;43.626;10.580;2024-03-02T11:24:28;9.10;;;2.45;;
35128;SDS011;21301;43.626;10.580;2024-03-02T11:26:58;16.65;;;2.50;;
35128;SDS011;21301;43.626;10.580;2024-03-02T11:34:42;11.13;;;2.17;;
35128;SDS011;21301;43.626;10.580;2024-03-02T11:37:11;9.70;;;3.38;;
35128;SDS011;21301;43.626;10.580;2024-03-02T11:39:39;10.23;;;2.00;;
35128;SDS011;21301;43.626;10.580;2024-03-02T11:42:05;10.93;;;3.25;;
35128;SDS011;21301;43.626;10.580;2024-03-02T11:44:37;7.80;;;2.92;;
35128;SDS011;21301;43.626;10.580;2024-03-02T11:47:10;9.02;;;2.47;;
35128;SDS011;21301;43.626;10.580;2024-03-02T11:49:40;7.63;;;1.65;;
35128;SDS011;21301;43.626;10.580;2024-03-02T11:52:07;12.48;;;1.95;;
35128;SDS011;21301;43.626;10.580;2024-03-02T11:54:36;10.15;;;1.67;;
35128;SDS011;21301;43.626;10.580;2024-03-02T11:57:07;7.28;;;1.65;;
35128;SDS011;21301;43.626;10.580;2024-03-02T11:59:33;10.20;;;5.28;;
35128;SDS011;21301;43.626;10.580;2024-03-02T12:01:58;13.00;;;3.00;;
35128;SDS011;21301;43.626;10.580;2024-03-02T12:04:26;6.57;;;1.50;;
35128;SDS011;21301;43.626;10.580;2024-03-02T12:06:55;10.85;;;2.08;;
35128;SDS011;21301;43.626;10.580;2024-03-02T12:09:25;12.48;;;2.00;;
35128;SDS011;21301;43.626;10.580;2024-03-02T12:12:05;11.10;;;2.63;;
35128;SDS011;21301;43.626;10.580;2024-03-02T12:14:36;7.45;;;2.28;;
35128;SDS011;21301;43.626;10.580;2024-03-02T12:17:04;8.05;;;2.58;;
35128;SDS011;21301;43.626;10.580;2024-03-02T12:19:31;11.90;;;4.88;;
35128;SDS011;21301;43.626;10.580;2024-03-02T12:21:59;13.52;;;5.30;;
35128;SDS011;21301;43.626;10.580;2024-03-02T12:24:29;14.10;;;3.28;;
35128;SDS011;21301;43.626;10.580;2024-03-02T12:26:55;10.98;;;2.72;;
35128;SDS011;21301;43.626;10.580;2024-03-02T12:29:21;4.75;;;1.52;;
35128;SDS011;21301;43.626;10.580;2024-03-02T12:31:51;9.00;;;2.22;;
35128;SDS011;21301;43.626;10.580;2024-03-02T12:34:17;8.13;;;1.65;;
35128;SDS011;21301;43.626;10.580;2024-03-02T12:36:45;10.93;;;1.98;;
35128;SDS011;21301;43.626;10.580;2024-03-02T12:39:17;8.82;;;2.10;;
35128;SDS011;21301;43.626;10.580;2024-03-02T12:41:53;9.82;;;2.33;;
35128;SDS011;21301;43.626;10.580;2024-03-02T12:44:20;9.75;;;2.35;;
35128;SDS011;21301;43.626;10.580;2024-03-02T12:46:46;12.45;;;4.50;;
35128;SDS011;21301;43.626;10.580;2024-03-02T12:49:12;12.65;;;2.10;;
35128;SDS011;21301;43.626;10.580;2024-03-02T12:51:43;14.25;;;2.83;;
35128;SDS011;21301;43.626;10.580;2024-03-02T12:54:13;12.75;;;2.17;;
35128;SDS011;21301;43.626;10.580;2024-03-02T12:56:40;24.77;;;2.10;;
35128;SDS011;21301;43.626;10.580;2024-03-02T12:59:17;9.52;;;2.35;;
35128;SDS011;21301;43.626;10.580;2024-03-02T13:01:51;7.55;;;2.28;;
35128;SDS011;21301;43.626;10.580;2024-03-02T13:04:26;8.65;;;2.38;;
35128;SDS011;21301;43.626;10.580;2024-03-02T13:06:58;11.77;;;2.15;;
35128;SDS011;21301;43.626;10.580;2024-03-02T13:09:25;9.25;;;2.00;;
35128;SDS011;21301;43.626;10.580;2024-03-02T13:11:52;4.60;;;1.25;;
35128;SDS011;21301;43.626;10.580;2024-03-02T13:14:21;8.70;;;1.88;;
35128;SDS011;21301;43.626;10.580;2024-03-02T13:16:47;10.48;;;2.83;;
35128;SDS011;21301;43.626;10.580;2024-03-02T13:19:13;11.50;;;2.35;;
35128;SDS011;21301;43.626;10.580;2024-03-02T13:21:38;10.50;;;2.47;;
35128;SDS011;21301;43.626;10.580;2024-03-02T13:24:04;13.30;;;2.47;;
35128;SDS011;21301;43.626;10.580;2024-03-02T13:26:32;8.95;;;2.33;;
35128;SDS011;21301;43.626;10.580;2024-03-02T13:28:57;8.48;;;2.00;;
35128;SDS011;21301;43.626;10.580;2024-03-02T13:31:23;18.73;;;2.85;;
35128;SDS011;21301;43.626;10.580;2024-03-02T13:33:48;11.13;;;1.75;;
35128;SDS011;21301;43.626;10.580;2024-03-02T13:36:14;10.65;;;2.33;;
35128;SDS011;21301;43.626;10.580;2024-03-02T13:38:39;10.13;;;2.03;;
35128;SDS011;21301;43.626;10.580;2024-03-02T13:41:05;11.00;;;2.25;;
35128;SDS011;21301;43.626;10.580;2024-03-02T13:43:32;7.95;;;2.88;;
35128;SDS011;21301;43.626;10.580;2024-03-02T13:45:58;7.93;;;1.80;;
35128;SDS011;21301;43.626;10.580;2024-03-02T13:48:24;13.85;;;2.10;;
35128;SDS011;21301;43.626;10.580;2024-03-02T13:50:53;12.73;;;2.20;;
35128;SDS011;21301;43.626;10.580;2024-03-02T13:53:19;10.05;;;1.77;;
35128;SDS011;21301;43.626;10.580;2024-03-02T13:55:45;7.15;;;1.38;;
35128;SDS011;21301;43.626;10.580;2024-03-02T13:58:10;10.00;;;2.30;;
35128;SDS011;21301;43.626;10.580;2024-03-02T14:00:37;5.45;;;1.35;;
35128;SDS011;21301;43.626;10.580;2024-03-02T14:03:04;13.18;;;2.65;;
35128;SDS011;21301;43.626;10.580;2024-03-02T14:05:31;10.40;;;1.88;;
35128;SDS011;21301;43.626;10.580;2024-03-02T14:07:57;6.78;;;1.73;;
35128;SDS011;21301;43.626;10.580;2024-03-02T14:10:25;7.35;;;2.58;;
35128;SDS011;21301;43.626;10.580;2024-03-02T14:12:52;13.10;;;2.55;;
35128;SDS011;21301;43.626;10.580;2024-03-02T14:15:20;6.05;;;1.83;;
35128;SDS011;21301;43.626;10.580;2024-03-02T14:17:47;7.05;;;1.50;;
35128;SDS011;21301;43.626;10.580;2024-03-02T14:20:13;10.95;;;1.98;;
35128;SDS011;21301;43.626;10.580;2024-03-02T14:22:39;6.50;;;1.98;;
35128;SDS011;21301;43.626;10.580;2024-03-02T14:25:05;5.90;;;1.38;;
35128;SDS011;21301;43.626;10.580;2024-03-02T14:27:31;12.07;;;1.90;;
35128;SDS011;21301;43.626;10.580;2024-03-02T14:29:57;7.68;;;1.92;;
35128;SDS011;21301;43.626;10.580;2024-03-02T14:32:23;8.18;;;1.80;;
35128;SDS011;21301;43.626;10.580;2024-03-02T14:34:48;9.77;;;2.25;;
35128;SDS011;21301;43.626;10.580;2024-03-02T14:37:17;13.93;;;1.85;;
35128;SDS011;21301;43.626;10.580;2024-03-02T14:39:43;8.68;;;1.90;;
35128;SDS011;21301;43.626;10.580;2024-03-02T14:42:08;9.27;;;2.13;;
35128;SDS011;21301;43.626;10.580;2024-03-02T14:44:34;7.28;;;1.80;;
35128;SDS011;21301;43.626;10.580;2024-03-02T14:47:03;13.82;;;2.35;;
35128;SDS011;21301;43.626;10.580;2024-03-02T14:49:32;12.45;;;2.85;;